Ship Status Report: callsign WDJ3639

sailwx.info

Track history (hours):
 
Tides and Currents Weather Stations Pressure Air Temp Water Temp Dewpoint Dewpoint Depression Visibility Wind Speed Wind Dir Waves Ship Positions

Oceanographic research ship ()

Owner: Ocean Titan Holding, LLC, Seattle, WA. More information available from US FCC via Universal Licensing System and Coast Guard Vessel Documentation Center.

Last reported at 2017-Dec-11 02:35 UTC. Time now 2017-Dec-12 04:33 UTC.
Position N 49°10' W 122°06'.

Length 60 m; draft 4.6 m.

Type: Cargo ship. MMSI: 369228000.

Date/timePositionNaut miles runAvg speedWind from/ knotsBaromVisibWave heightAir tempDewpointWater temp
2017-Dec-11 02:35N 49°10' W 122°06'1 8.7
2017-Dec-11 02:29N 49°09' W 122°06'56 8.7
2017-Dec-10 20:02N 48°13' W 122°17'0 8.6
2017-Dec-10 19:59N 48°13' W 122°17'6 8.7
2017-Dec-10 19:17N 48°07' W 122°18'3 8.6
2017-Dec-10 18:59N 48°04' W 122°19'4 8.7
2017-Dec-10 18:29N 48°00' W 122°20'4 8.7
2017-Dec-10 17:59N 47°56' W 122°20'4 8.7
2017-Dec-10 17:29N 47°51' W 122°21'4 8.7
2017-Dec-10 16:59N 47°47' W 122°22'4 8.6
2017-Dec-10 16:29N 47°43' W 122°23'3 6.3
2017-Dec-10 16:01N 47°40' W 122°24'0 0.1
2017-Dec-10 15:31N 47°40' W 122°24'0 0.4
2017-Dec-10 15:01N 47°40' W 122°24'2 3.0
2017-Dec-10 14:31N 47°41' W 122°25'0 0.0
2017-Dec-10 14:00N 47°41' W 122°25'2 3.1
2017-Dec-10 13:31N 47°43' W 122°25'4 7.6
2017-Dec-10 13:01N 47°47' W 122°25'4 7.8
2017-Dec-10 12:31N 47°50' W 122°25'4 8.7
2017-Dec-10 12:01N 47°54' W 122°29'4 8.7
2017-Dec-10 11:31N 47°57' W 122°34'6 8.6
2017-Dec-10 10:50N 48°02' W 122°39'7 7.7
2017-Dec-10 09:57N 48°08' W 122°43'4 7.7
2017-Dec-10 09:28N 48°10' W 122°47'4 8.0
2017-Dec-10 08:57N 48°11' W 122°53'4 7.9
2017-Dec-10 08:31N 48°12' W 122°58'4 8.4
2017-Dec-10 08:00N 48°12' W 123°05'4 8.4
2017-Dec-10 07:31N 48°12' W 123°11'4 8.5
2017-Dec-10 07:00N 48°12' W 123°17'4 8.3
2017-Dec-10 06:30N 48°13' W 123°24'5 9.8
2017-Dec-10 05:58N 48°13' W 123°32'4 9.3
2017-Dec-10 05:30N 48°13' W 123°38'5 9.6
2017-Dec-10 05:00N 48°13' W 123°45'5 9.9
2017-Dec-10 04:30N 48°13' W 123°53'510.8
2017-Dec-10 04:01N 48°15' W 124°00'510.6
2017-Dec-10 03:30N 48°17' W 124°08'510.4
2017-Dec-10 03:00N 48°19' W 124°15'510.0
2017-Dec-10 02:30N 48°21' W 124°22'5 9.6
2017-Dec-10 02:00N 48°23' W 124°28'5 9.3
2017-Dec-10 01:30N 48°25' W 124°34'510.2
2017-Dec-10 01:00N 48°27' W 124°41'4 8.9
2017-Dec-10 00:30N 48°28' W 124°48'4 8.7
2017-Dec-10 00:01N 48°28' W 124°54'5 9.1
2017-Dec-09 23:30N 48°27' W 125°01'510.1
2017-Dec-09 23:01N 48°23' W 125°05'510.0
2017-Dec-09 22:30N 48°18' W 125°08'5 9.9
2017-Dec-09 22:00N 48°14' W 125°12'1010.3
2017-Dec-09 21:04N 48°05' W 125°19'210.3
2017-Dec-09 20:55N 48°04' W 125°20'2 5.3
2017-Dec-09 20:28N 48°02' W 125°21'1 2.2
2017-Dec-09 19:56N 48°03' W 125°21'7 3.8
2017-Dec-09 17:59N 48°10' W 125°17'2 3.9
2017-Dec-09 17:31N 48°12' W 125°16'2 4.1
2017-Dec-09 17:00N 48°14' W 125°16'2 3.5
2017-Dec-09 16:30N 48°15' W 125°16'2 4.4
2017-Dec-09 16:00N 48°17' W 125°15'0 0.6
2017-Dec-09 15:30N 48°18' W 125°15'2 3.8
2017-Dec-09 15:00N 48°16' W 125°16'2 4.0
2017-Dec-09 14:30N 48°14' W 125°16'2 4.0
2017-Dec-09 14:00N 48°12' W 125°17'5 3.8
2017-Dec-09 12:35N 48°07' W 125°18'0 4.0
2017-Dec-09 12:30N 48°06' W 125°18'2 4.0
2017-Dec-09 11:54N 48°04' W 125°20'2 3.6
2017-Dec-09 11:24N 48°03' W 125°22'0 0.6
2017-Dec-09 11:00N 48°03' W 125°22'4 3.9
2017-Dec-09 09:58N 48°06' W 125°19'2 3.9
2017-Dec-09 09:28N 48°08' W 125°18'2 4.0
2017-Dec-09 09:00N 48°10' W 125°17'2 3.8
2017-Dec-09 08:30N 48°12' W 125°17'2 3.9
2017-Dec-09 08:00N 48°14' W 125°17'2 4.1
2017-Dec-09 07:30N 48°16' W 125°16'2 3.8
2017-Dec-09 07:00N 48°18' W 125°15'2 3.2
2017-Dec-09 06:29N 48°18' W 125°13'0 0.8
2017-Dec-09 06:00N 48°18' W 125°13'0 0.3
2017-Dec-09 05:30N 48°18' W 125°12'0 0.3
2017-Dec-09 04:59N 48°18' W 125°12'1 2.4
2017-Dec-09 04:29N 48°18' W 125°14'0 0.2
2017-Dec-09 03:57N 48°18' W 125°14'0 0.4
2017-Dec-09 03:28N 48°18' W 125°14'1 2.4
2017-Dec-09 02:58N 48°18' W 125°16'2 3.8
2017-Dec-09 02:30N 48°16' W 125°16'2 4.1
2017-Dec-09 01:55N 48°14' W 125°17'2 3.9
2017-Dec-09 01:30N 48°12' W 125°17'5 3.9
2017-Dec-09 00:05N 48°07' W 125°19'0 3.7
2017-Dec-09 00:00N 48°06' W 125°19'2 3.5
2017-Dec-08 23:30N 48°05' W 125°20'4 1.6
2017-Dec-08 20:56N 48°09' W 125°18'2 3.8
2017-Dec-08 20:18N 48°11' W 125°18'1 3.9
2017-Dec-08 19:59N 48°12' W 125°17'2 3.8
2017-Dec-08 19:31N 48°14' W 125°17'2 3.8
2017-Dec-08 19:01N 48°16' W 125°17'2 4.2
2017-Dec-08 18:30N 48°18' W 125°16'0 0.4
2017-Dec-08 18:00N 48°18' W 125°16'2 3.9
2017-Dec-08 17:30N 48°16' W 125°17'2 3.8
2017-Dec-08 17:00N 48°14' W 125°17'2 4.0
2017-Dec-08 16:27N 48°12' W 125°18'2 3.9
2017-Dec-08 15:55N 48°10' W 125°18'2 3.7
2017-Dec-08 15:30N 48°09' W 125°19'2 3.9
2017-Dec-08 15:01N 48°07' W 125°19'2 4.0
2017-Dec-08 14:30N 48°05' W 125°21'2 3.4
2017-Dec-08 14:00N 48°04' W 125°22'1 1.4
2017-Dec-08 13:30N 48°03' W 125°23'2 4.0
2017-Dec-08 12:55N 48°05' W 125°21'2 3.9
2017-Dec-08 12:30N 48°06' W 125°20'2 3.8
2017-Dec-08 12:00N 48°08' W 125°19'2 4.0
2017-Dec-08 11:30N 48°10' W 125°18'3 3.8
2017-Dec-08 10:50N 48°13' W 125°18'1 3.9
2017-Dec-08 10:29N 48°14' W 125°18'2 4.1
2017-Dec-08 10:00N 48°16' W 125°17'2 3.7
2017-Dec-08 09:30N 48°18' W 125°17'1 2.0
2017-Dec-08 09:00N 48°19' W 125°16'2 3.9
2017-Dec-08 08:30N 48°17' W 125°17'2 3.9
2017-Dec-08 08:00N 48°15' W 125°18'2 3.6
2017-Dec-08 07:30N 48°13' W 125°18'2 4.0
2017-Dec-08 06:59N 48°11' W 125°18'2 3.8
2017-Dec-08 06:30N 48°09' W 125°19'3 4.1
2017-Dec-08 05:47N 48°07' W 125°20'1 3.5
2017-Dec-08 05:30N 48°06' W 125°21'2 3.9
2017-Dec-08 05:00N 48°04' W 125°22'1 2.9
2017-Dec-08 04:29N 48°03' W 125°24'25 3.1
2017-Dec-07 20:27N 47°52' W 125°56'2 3.4
2017-Dec-07 19:58N 47°50' W 125°57'3 5.1
2017-Dec-07 19:19N 47°47' W 126°00'1 1.3
2017-Dec-07 18:19N 47°48' W 126°02'0 0.2
2017-Dec-07 17:58N 47°48' W 126°02'1 2.4
2017-Dec-07 17:22N 47°49' W 126°02'0 1.0
2017-Dec-07 17:00N 47°49' W 126°01'2 0.6
2017-Dec-07 14:06N 47°51' W 126°02'1 1.3
2017-Dec-07 13:03N 47°51' W 125°60'3 1.0
2017-Dec-07 10:17N 47°50' W 125°55'0 0.9
2017-Dec-07 10:00N 47°50' W 125°55'0 0.8
2017-Dec-07 09:30N 47°50' W 125°55'2 0.7
2017-Dec-07 06:58N 47°51' W 125°52'0 0.5
2017-Dec-07 06:29N 47°51' W 125°52'0 0.8
2017-Dec-07 05:57N 47°51' W 125°52'5 2.3
2017-Dec-07 03:49N 47°52' W 125°60'0 0.1
2017-Dec-07 01:59N 47°52' W 125°59'0 0.0
2017-Dec-07 01:30N 47°52' W 125°59'1 0.2
2017-Dec-06 22:10N 47°51' W 126°01'0 2.5
2017-Dec-06 22:00N 47°51' W 126°01'2 3.1
2017-Dec-06 21:30N 47°50' W 126°03'0 0.4
2017-Dec-06 21:01N 47°50' W 126°02'  
2017-Dec-04 01:44N 47°22' W 123°05'2 0.9
2017-Dec-03 23:28N 47°23' W 123°08'1 3.2
2017-Dec-03 23:00N 47°25' W 123°07'2 3.3
2017-Dec-03 22:29N 47°26' W 123°06'2 3.9
2017-Dec-03 22:00N 47°28' W 123°05'2 4.0
2017-Dec-03 21:30N 47°30' W 123°03'2 4.1
2017-Dec-03 21:00N 47°31' W 123°02'1 1.6
2017-Dec-03 20:30N 47°32' W 123°01'1 2.9
2017-Dec-03 20:00N 47°33' W 123°00'1 2.3
2017-Dec-03 19:30N 47°34' W 122°59'2 3.9
2017-Dec-03 19:00N 47°36' W 122°58'0 0.2
2017-Dec-03 18:30N 47°36' W 122°58'1 2.7
2017-Dec-03 18:00N 47°37' W 122°56'2 3.2
2017-Dec-03 17:30N 47°38' W 122°55'2 3.4
2017-Dec-03 17:00N 47°39' W 122°53'0 0.2
2017-Dec-03 16:30N 47°39' W 122°52'0 0.2
2017-Dec-03 16:00N 47°39' W 122°53'0 0.2
2017-Dec-03 15:30N 47°39' W 122°53'0 0.2
2017-Dec-03 15:00N 47°39' W 122°53'1 1.3
2017-Dec-03 14:30N 47°39' W 122°54'0 0.0
2017-Dec-03 14:00N 47°39' W 122°54'0 0.0
2017-Dec-03 13:30N 47°39' W 122°54'0 0.0
2017-Dec-03 13:00N 47°39' W 122°54'0 0.0
2017-Dec-03 12:30N 47°39' W 122°54'0 0.0
2017-Dec-03 12:00N 47°39' W 122°54'0 0.0
2017-Dec-03 11:30N 47°39' W 122°54'0 0.0
2017-Dec-03 11:00N 47°39' W 122°54'0 0.0
2017-Dec-03 10:30N 47°39' W 122°54'0 0.0
2017-Dec-03 10:00N 47°39' W 122°54'0 0.0
2017-Dec-03 09:30N 47°39' W 122°54'0 0.0
2017-Dec-03 09:00N 47°39' W 122°54'0 0.1
2017-Dec-03 08:30N 47°39' W 122°53'0 0.0
2017-Dec-03 08:00N 47°39' W 122°53'0 0.0
2017-Dec-03 07:30N 47°39' W 122°53'0 0.0
2017-Dec-03 07:00N 47°39' W 122°53'0 0.0
2017-Dec-03 06:30N 47°39' W 122°53'0 0.0
2017-Dec-03 06:00N 47°39' W 122°53'0 0.0
2017-Dec-03 05:30N 47°39' W 122°53'0 0.0
2017-Dec-03 05:00N 47°39' W 122°53'0 0.0
2017-Dec-03 04:30N 47°39' W 122°53'0 0.0
2017-Dec-03 04:00N 47°39' W 122°53'0 0.0
2017-Dec-03 03:30N 47°39' W 122°53'0 0.0
2017-Dec-03 03:00N 47°39' W 122°53'0 0.0
2017-Dec-03 02:30N 47°39' W 122°53'0 0.0
2017-Dec-03 02:00N 47°39' W 122°53'0 0.1
2017-Dec-03 01:30N 47°39' W 122°54'0 0.0
2017-Dec-03 01:00N 47°39' W 122°54'0 0.1
2017-Dec-03 00:30N 47°39' W 122°53'0 0.0
2017-Dec-03 00:00N 47°39' W 122°53'0 0.0
2017-Dec-02 23:30N 47°39' W 122°53'1 2.9
2017-Dec-02 23:00N 47°40' W 122°54'1 3.0
2017-Dec-02 22:30N 47°39' W 122°53'0 0.0
2017-Dec-02 22:00N 47°39' W 122°53'0 0.7
2017-Dec-02 21:30N 47°38' W 122°54'2 3.3
2017-Dec-02 21:00N 47°37' W 122°56'2 3.8
2017-Dec-02 20:30N 47°36' W 122°58'2 4.1
2017-Dec-02 20:00N 47°34' W 122°59'2 3.8
2017-Dec-02 19:30N 47°33' W 123°01'2 3.8
2017-Dec-02 19:00N 47°31' W 123°02'2 3.8
2017-Dec-02 18:30N 47°29' W 123°03'2 4.0
2017-Dec-02 18:00N 47°28' W 123°05'2 3.9
2017-Dec-02 17:29N 47°26' W 123°06'2 3.7
2017-Dec-02 16:54N 47°24' W 123°08'0 1.2
2017-Dec-02 16:30N 47°24' W 123°08'0 0.7
2017-Dec-02 16:00N 47°25' W 123°07'0 0.0
2017-Dec-02 15:30N 47°25' W 123°07'1 1.5
2017-Dec-02 15:00N 47°25' W 123°07'0 0.9
2017-Dec-02 14:30N 47°26' W 123°07'0 0.0
2017-Dec-02 14:00N 47°26' W 123°07'0 0.0
2017-Dec-02 13:30N 47°26' W 123°07'0 0.0
2017-Dec-02 13:00N 47°26' W 123°07'0 0.0
2017-Dec-02 12:30N 47°26' W 123°07'0 0.0
2017-Dec-02 12:00N 47°26' W 123°07'0 0.0
2017-Dec-02 11:30N 47°26' W 123°07'0 0.0
2017-Dec-02 10:59N 47°26' W 123°07'0 0.0
2017-Dec-02 10:17N 47°26' W 123°07'0 0.0
2017-Dec-02 10:00N 47°26' W 123°07'0 0.0
2017-Dec-02 09:30N 47°26' W 123°07'0 0.0
2017-Dec-02 09:00N 47°26' W 123°07'0 0.0
2017-Dec-02 08:30N 47°26' W 123°07'0 0.0
2017-Dec-02 08:00N 47°26' W 123°07'0 0.0
2017-Dec-02 07:30N 47°26' W 123°07'0 0.0
2017-Dec-02 07:00N 47°26' W 123°07'0 0.0
2017-Dec-02 06:30N 47°26' W 123°07'0 0.0
2017-Dec-02 06:00N 47°26' W 123°07'0 0.0
2017-Dec-02 05:30N 47°26' W 123°07'0 0.0
2017-Dec-02 05:00N 47°26' W 123°07'0 0.0
2017-Dec-02 04:30N 47°26' W 123°07'0 0.0
2017-Dec-02 04:00N 47°26' W 123°07'0 0.0
2017-Dec-02 03:30N 47°26' W 123°07'0 0.0
2017-Dec-02 03:00N 47°26' W 123°07'0 0.0
2017-Dec-02 02:30N 47°26' W 123°07'0 0.0
2017-Dec-02 02:00N 47°26' W 123°07'0 0.0
2017-Dec-02 01:30N 47°26' W 123°07'1 2.8
2017-Dec-02 01:00N 47°27' W 123°06'3 5.7
2017-Dec-02 00:29N 47°29' W 123°03'3 5.5
2017-Dec-02 00:00N 47°32' W 123°02'3 5.6
2017-Dec-01 23:30N 47°34' W 122°60'3 5.3
2017-Dec-01 23:00N 47°36' W 122°57'3 5.0
2017-Dec-01 22:30N 47°38' W 122°55'5 8.9
2017-Dec-01 22:00N 47°40' W 122°48'9 9.8
2017-Dec-01 21:06N 47°48' W 122°43'110.4
2017-Dec-01 21:00N 47°49' W 122°42'5 9.8
2017-Dec-01 20:30N 47°52' W 122°37'0 0.7
2017-Dec-01 20:00N 47°52' W 122°37'4 6.6
2017-Dec-01 19:22N 47°56' W 122°38'711.4
2017-Dec-01 18:45N 48°03' W 122°40'411.7
2017-Dec-01 18:25N 48°07' W 122°41'612.2
2017-Dec-01 17:58N 48°10' W 122°48'511.1
2017-Dec-01 17:29N 48°11' W 122°56'511.1
2017-Dec-01 17:00N 48°12' W 123°04'611.4
2017-Dec-01 16:30N 48°12' W 123°13'611.2
2017-Dec-01 16:00N 48°11' W 123°21'510.9
2017-Dec-01 15:30N 48°11' W 123°29'4 7.6
2017-Dec-01 15:00N 48°11' W 123°35'0 0.0
2017-Dec-01 14:29N 48°11' W 123°35'0 0.0
2017-Dec-01 14:00N 48°11' W 123°35'0 0.0
2017-Dec-01 13:30N 48°11' W 123°35'0 0.0
2017-Dec-01 13:00N 48°11' W 123°35'0 0.0
2017-Dec-01 12:30N 48°11' W 123°35'0 0.0
2017-Dec-01 12:00N 48°11' W 123°35'2 3.2
2017-Dec-01 11:30N 48°11' W 123°33'4 8.5
2017-Dec-01 10:59N 48°11' W 123°26'4 8.5
2017-Dec-01 10:30N 48°11' W 123°20'4 8.3
2017-Dec-01 10:00N 48°14' W 123°14'4 8.5
2017-Dec-01 09:29N 48°16' W 123°09'5 8.6
2017-Dec-01 08:54N 48°19' W 123°02'3 8.9
2017-Dec-01 08:30N 48°20' W 122°58'4 8.2
2017-Dec-01 08:00N 48°23' W 122°53'4 8.1
2017-Dec-01 07:30N 48°25' W 122°48'4 7.1
2017-Dec-01 07:00N 48°28' W 122°45'4 7.2
2017-Dec-01 06:30N 48°31' W 122°42'3 6.9
2017-Dec-01 06:00N 48°31' W 122°37'0 0.4
2017-Dec-01 05:19N 48°31' W 122°37'0 0.0
2017-Dec-01 04:49N 48°31' W 122°37'0 0.0
2017-Dec-01 04:25N 48°31' W 122°37'0 0.0
2017-Dec-01 03:58N 48°31' W 122°37'0 0.0
2017-Dec-01 03:25N 48°31' W 122°37'0 0.0
2017-Dec-01 02:55N 48°31' W 122°37'  
Track history (hours):
 
Tides and Currents Weather Stations Pressure Air Temp Water Temp Dewpoint Dewpoint Depression Visibility Wind Speed Wind Dir Waves Ship Positions

Oceanographic research ship ()

Owner: Ocean Titan Holding, LLC, Seattle, WA. More information available from US FCC via Universal Licensing System and Coast Guard Vessel Documentation Center.

Last reported at 2017-Dec-11 02:35 UTC. Time now 2017-Dec-12 04:33 UTC.
Position N 49°10' W 122°06'.

Length 60 m; draft 4.6 m.

Type: Cargo ship. MMSI: 369228000.

Date/timePositionNaut miles runAvg speedWind from/ knotsBaromVisibWave heightAir tempDewpointWater temp
2017-Dec-11 02:35N 49°10' W 122°06'1 8.7
2017-Dec-11 02:29N 49°09' W 122°06'56 8.7
2017-Dec-10 20:02N 48°13' W 122°17'0 8.6
2017-Dec-10 19:59N 48°13' W 122°17'6 8.7
2017-Dec-10 19:17N 48°07' W 122°18'3 8.6
2017-Dec-10 18:59N 48°04' W 122°19'4 8.7
2017-Dec-10 18:29N 48°00' W 122°20'4 8.7
2017-Dec-10 17:59N 47°56' W 122°20'4 8.7
2017-Dec-10 17:29N 47°51' W 122°21'4 8.7
2017-Dec-10 16:59N 47°47' W 122°22'4 8.6
2017-Dec-10 16:29N 47°43' W 122°23'3 6.3
2017-Dec-10 16:01N 47°40' W 122°24'0 0.1
2017-Dec-10 15:31N 47°40' W 122°24'0 0.4
2017-Dec-10 15:01N 47°40' W 122°24'2 3.0
2017-Dec-10 14:31N 47°41' W 122°25'0 0.0
2017-Dec-10 14:00N 47°41' W 122°25'2 3.1
2017-Dec-10 13:31N 47°43' W 122°25'4 7.6
2017-Dec-10 13:01N 47°47' W 122°25'4 7.8
2017-Dec-10 12:31N 47°50' W 122°25'4 8.7
2017-Dec-10 12:01N 47°54' W 122°29'4 8.7
2017-Dec-10 11:31N 47°57' W 122°34'6 8.6
2017-Dec-10 10:50N 48°02' W 122°39'7 7.7
2017-Dec-10 09:57N 48°08' W 122°43'4 7.7
2017-Dec-10 09:28N 48°10' W 122°47'4 8.0
2017-Dec-10 08:57N 48°11' W 122°53'4 7.9
2017-Dec-10 08:31N 48°12' W 122°58'4 8.4
2017-Dec-10 08:00N 48°12' W 123°05'4 8.4
2017-Dec-10 07:31N 48°12' W 123°11'4 8.5
2017-Dec-10 07:00N 48°12' W 123°17'4 8.3
2017-Dec-10 06:30N 48°13' W 123°24'5 9.8
2017-Dec-10 05:58N 48°13' W 123°32'4 9.3
2017-Dec-10 05:30N 48°13' W 123°38'5 9.6
2017-Dec-10 05:00N 48°13' W 123°45'5 9.9
2017-Dec-10 04:30N 48°13' W 123°53'510.8
2017-Dec-10 04:01N 48°15' W 124°00'510.6
2017-Dec-10 03:30N 48°17' W 124°08'510.4
2017-Dec-10 03:00N 48°19' W 124°15'510.0
2017-Dec-10 02:30N 48°21' W 124°22'5 9.6
2017-Dec-10 02:00N 48°23' W 124°28'5 9.3
2017-Dec-10 01:30N 48°25' W 124°34'510.2
2017-Dec-10 01:00N 48°27' W 124°41'4 8.9
2017-Dec-10 00:30N 48°28' W 124°48'4 8.7
2017-Dec-10 00:01N 48°28' W 124°54'5 9.1
2017-Dec-09 23:30N 48°27' W 125°01'510.1
2017-Dec-09 23:01N 48°23' W 125°05'510.0
2017-Dec-09 22:30N 48°18' W 125°08'5 9.9
2017-Dec-09 22:00N 48°14' W 125°12'1010.3
2017-Dec-09 21:04N 48°05' W 125°19'210.3
2017-Dec-09 20:55N 48°04' W 125°20'2 5.3
2017-Dec-09 20:28N 48°02' W 125°21'1 2.2
2017-Dec-09 19:56N 48°03' W 125°21'7 3.8
2017-Dec-09 17:59N 48°10' W 125°17'2 3.9
2017-Dec-09 17:31N 48°12' W 125°16'2 4.1
2017-Dec-09 17:00N 48°14' W 125°16'2 3.5
2017-Dec-09 16:30N 48°15' W 125°16'2 4.4
2017-Dec-09 16:00N 48°17' W 125°15'0 0.6
2017-Dec-09 15:30N 48°18' W 125°15'2 3.8
2017-Dec-09 15:00N 48°16' W 125°16'2 4.0
2017-Dec-09 14:30N 48°14' W 125°16'2 4.0
2017-Dec-09 14:00N 48°12' W 125°17'5 3.8
2017-Dec-09 12:35N 48°07' W 125°18'0 4.0
2017-Dec-09 12:30N 48°06' W 125°18'2 4.0
2017-Dec-09 11:54N 48°04' W 125°20'2 3.6
2017-Dec-09 11:24N 48°03' W 125°22'0 0.6
2017-Dec-09 11:00N 48°03' W 125°22'4 3.9
2017-Dec-09 09:58N 48°06' W 125°19'2 3.9
2017-Dec-09 09:28N 48°08' W 125°18'2 4.0
2017-Dec-09 09:00N 48°10' W 125°17'2 3.8
2017-Dec-09 08:30N 48°12' W 125°17'2 3.9
2017-Dec-09 08:00N 48°14' W 125°17'2 4.1
2017-Dec-09 07:30N 48°16' W 125°16'2 3.8
2017-Dec-09 07:00N 48°18' W 125°15'2 3.2
2017-Dec-09 06:29N 48°18' W 125°13'0 0.8
2017-Dec-09 06:00N 48°18' W 125°13'0 0.3
2017-Dec-09 05:30N 48°18' W 125°12'0 0.3
2017-Dec-09 04:59N 48°18' W 125°12'1 2.4
2017-Dec-09 04:29N 48°18' W 125°14'0 0.2
2017-Dec-09 03:57N 48°18' W 125°14'0 0.4
2017-Dec-09 03:28N 48°18' W 125°14'1 2.4
2017-Dec-09 02:58N 48°18' W 125°16'2 3.8
2017-Dec-09 02:30N 48°16' W 125°16'2 4.1
2017-Dec-09 01:55N 48°14' W 125°17'2 3.9
2017-Dec-09 01:30N 48°12' W 125°17'5 3.9
2017-Dec-09 00:05N 48°07' W 125°19'0 3.7
2017-Dec-09 00:00N 48°06' W 125°19'2 3.5
2017-Dec-08 23:30N 48°05' W 125°20'4 1.6
2017-Dec-08 20:56N 48°09' W 125°18'2 3.8
2017-Dec-08 20:18N 48°11' W 125°18'1 3.9
2017-Dec-08 19:59N 48°12' W 125°17'2 3.8
2017-Dec-08 19:31N 48°14' W 125°17'2 3.8
2017-Dec-08 19:01N 48°16' W 125°17'2 4.2
2017-Dec-08 18:30N 48°18' W 125°16'0 0.4
2017-Dec-08 18:00N 48°18' W 125°16'2 3.9
2017-Dec-08 17:30N 48°16' W 125°17'2 3.8
2017-Dec-08 17:00N 48°14' W 125°17'2 4.0
2017-Dec-08 16:27N 48°12' W 125°18'2 3.9
2017-Dec-08 15:55N 48°10' W 125°18'2 3.7
2017-Dec-08 15:30N 48°09' W 125°19'2 3.9
2017-Dec-08 15:01N 48°07' W 125°19'2 4.0
2017-Dec-08 14:30N 48°05' W 125°21'2 3.4
2017-Dec-08 14:00N 48°04' W 125°22'1 1.4
2017-Dec-08 13:30N 48°03' W 125°23'2 4.0
2017-Dec-08 12:55N 48°05' W 125°21'2 3.9
2017-Dec-08 12:30N 48°06' W 125°20'2 3.8
2017-Dec-08 12:00N 48°08' W 125°19'2 4.0
2017-Dec-08 11:30N 48°10' W 125°18'3 3.8
2017-Dec-08 10:50N 48°13' W 125°18'1 3.9
2017-Dec-08 10:29N 48°14' W 125°18'2 4.1
2017-Dec-08 10:00N 48°16' W 125°17'2 3.7
2017-Dec-08 09:30N 48°18' W 125°17'1 2.0
2017-Dec-08 09:00N 48°19' W 125°16'2 3.9
2017-Dec-08 08:30N 48°17' W 125°17'2 3.9
2017-Dec-08 08:00N 48°15' W 125°18'2 3.6
2017-Dec-08 07:30N 48°13' W 125°18'2 4.0
2017-Dec-08 06:59N 48°11' W 125°18'2 3.8
2017-Dec-08 06:30N 48°09' W 125°19'3 4.1
2017-Dec-08 05:47N 48°07' W 125°20'1 3.5
2017-Dec-08 05:30N 48°06' W 125°21'2 3.9
2017-Dec-08 05:00N 48°04' W 125°22'1 2.9
2017-Dec-08 04:29N 48°03' W 125°24'25 3.1
2017-Dec-07 20:27N 47°52' W 125°56'2 3.4
2017-Dec-07 19:58N 47°50' W 125°57'3 5.1
2017-Dec-07 19:19N 47°47' W 126°00'1 1.3
2017-Dec-07 18:19N 47°48' W 126°02'0 0.2
2017-Dec-07 17:58N 47°48' W 126°02'1 2.4
2017-Dec-07 17:22N 47°49' W 126°02'0 1.0
2017-Dec-07 17:00N 47°49' W 126°01'2 0.6
2017-Dec-07 14:06N 47°51' W 126°02'1 1.3
2017-Dec-07 13:03N 47°51' W 125°60'3 1.0
2017-Dec-07 10:17N 47°50' W 125°55'0 0.9
2017-Dec-07 10:00N 47°50' W 125°55'0 0.8
2017-Dec-07 09:30N 47°50' W 125°55'2 0.7
2017-Dec-07 06:58N 47°51' W 125°52'0 0.5
2017-Dec-07 06:29N 47°51' W 125°52'0 0.8
2017-Dec-07 05:57N 47°51' W 125°52'5 2.3
2017-Dec-07 03:49N 47°52' W 125°60'0 0.1
2017-Dec-07 01:59N 47°52' W 125°59'0 0.0
2017-Dec-07 01:30N 47°52' W 125°59'1 0.2
2017-Dec-06 22:10N 47°51' W 126°01'0 2.5
2017-Dec-06 22:00N 47°51' W 126°01'2 3.1
2017-Dec-06 21:30N 47°50' W 126°03'0 0.4
2017-Dec-06 21:01N 47°50' W 126°02'  
2017-Dec-04 01:44N 47°22' W 123°05'2 0.9
2017-Dec-03 23:28N 47°23' W 123°08'1 3.2
2017-Dec-03 23:00N 47°25' W 123°07'2 3.3
2017-Dec-03 22:29N 47°26' W 123°06'2 3.9
2017-Dec-03 22:00N 47°28' W 123°05'2 4.0
2017-Dec-03 21:30N 47°30' W 123°03'2 4.1
2017-Dec-03 21:00N 47°31' W 123°02'1 1.6
2017-Dec-03 20:30N 47°32' W 123°01'1 2.9
2017-Dec-03 20:00N 47°33' W 123°00'1 2.3
2017-Dec-03 19:30N 47°34' W 122°59'2 3.9
2017-Dec-03 19:00N 47°36' W 122°58'0 0.2
2017-Dec-03 18:30N 47°36' W 122°58'1 2.7
2017-Dec-03 18:00N 47°37' W 122°56'2 3.2
2017-Dec-03 17:30N 47°38' W 122°55'2 3.4
2017-Dec-03 17:00N 47°39' W 122°53'0 0.2
2017-Dec-03 16:30N 47°39' W 122°52'0 0.2
2017-Dec-03 16:00N 47°39' W 122°53'0 0.2
2017-Dec-03 15:30N 47°39' W 122°53'0 0.2
2017-Dec-03 15:00N 47°39' W 122°53'1 1.3
2017-Dec-03 14:30N 47°39' W 122°54'0 0.0
2017-Dec-03 14:00N 47°39' W 122°54'0 0.0
2017-Dec-03 13:30N 47°39' W 122°54'0 0.0
2017-Dec-03 13:00N 47°39' W 122°54'0 0.0
2017-Dec-03 12:30N 47°39' W 122°54'0 0.0
2017-Dec-03 12:00N 47°39' W 122°54'0 0.0
2017-Dec-03 11:30N 47°39' W 122°54'0 0.0
2017-Dec-03 11:00N 47°39' W 122°54'0 0.0
2017-Dec-03 10:30N 47°39' W 122°54'0 0.0
2017-Dec-03 10:00N 47°39' W 122°54'0 0.0
2017-Dec-03 09:30N 47°39' W 122°54'0 0.0
2017-Dec-03 09:00N 47°39' W 122°54'0 0.1
2017-Dec-03 08:30N 47°39' W 122°53'0 0.0
2017-Dec-03 08:00N 47°39' W 122°53'0 0.0
2017-Dec-03 07:30N 47°39' W 122°53'0 0.0
2017-Dec-03 07:00N 47°39' W 122°53'0 0.0
2017-Dec-03 06:30N 47°39' W 122°53'0 0.0
2017-Dec-03 06:00N 47°39' W 122°53'0 0.0
2017-Dec-03 05:30N 47°39' W 122°53'0 0.0
2017-Dec-03 05:00N 47°39' W 122°53'0 0.0
2017-Dec-03 04:30N 47°39' W 122°53'0 0.0
2017-Dec-03 04:00N 47°39' W 122°53'0 0.0
2017-Dec-03 03:30N 47°39' W 122°53'0 0.0
2017-Dec-03 03:00N 47°39' W 122°53'0 0.0
2017-Dec-03 02:30N 47°39' W 122°53'0 0.0
2017-Dec-03 02:00N 47°39' W 122°53'0 0.1
2017-Dec-03 01:30N 47°39' W 122°54'0 0.0
2017-Dec-03 01:00N 47°39' W 122°54'0 0.1
2017-Dec-03 00:30N 47°39' W 122°53'0 0.0
2017-Dec-03 00:00N 47°39' W 122°53'0 0.0
2017-Dec-02 23:30N 47°39' W 122°53'1 2.9
2017-Dec-02 23:00N 47°40' W 122°54'1 3.0
2017-Dec-02 22:30N 47°39' W 122°53'0 0.0
2017-Dec-02 22:00N 47°39' W 122°53'0 0.7
2017-Dec-02 21:30N 47°38' W 122°54'2 3.3
2017-Dec-02 21:00N 47°37' W 122°56'2 3.8
2017-Dec-02 20:30N 47°36' W 122°58'2 4.1
2017-Dec-02 20:00N 47°34' W 122°59'2 3.8
2017-Dec-02 19:30N 47°33' W 123°01'2 3.8
2017-Dec-02 19:00N 47°31' W 123°02'2 3.8
2017-Dec-02 18:30N 47°29' W 123°03'2 4.0
2017-Dec-02 18:00N 47°28' W 123°05'2 3.9
2017-Dec-02 17:29N 47°26' W 123°06'2 3.7
2017-Dec-02 16:54N 47°24' W 123°08'0 1.2
2017-Dec-02 16:30N 47°24' W 123°08'0 0.7
2017-Dec-02 16:00N 47°25' W 123°07'0 0.0
2017-Dec-02 15:30N 47°25' W 123°07'1 1.5
2017-Dec-02 15:00N 47°25' W 123°07'0 0.9
2017-Dec-02 14:30N 47°26' W 123°07'0 0.0
2017-Dec-02 14:00N 47°26' W 123°07'0 0.0
2017-Dec-02 13:30N 47°26' W 123°07'0 0.0
2017-Dec-02 13:00N 47°26' W 123°07'0 0.0
2017-Dec-02 12:30N 47°26' W 123°07'0 0.0
2017-Dec-02 12:00N 47°26' W 123°07'0 0.0
2017-Dec-02 11:30N 47°26' W 123°07'0 0.0
2017-Dec-02 10:59N 47°26' W 123°07'0 0.0
2017-Dec-02 10:17N 47°26' W 123°07'0 0.0
2017-Dec-02 10:00N 47°26' W 123°07'0 0.0
2017-Dec-02 09:30N 47°26' W 123°07'0 0.0
2017-Dec-02 09:00N 47°26' W 123°07'0 0.0
2017-Dec-02 08:30N 47°26' W 123°07'0 0.0
2017-Dec-02 08:00N 47°26' W 123°07'0 0.0
2017-Dec-02 07:30N 47°26' W 123°07'0 0.0
2017-Dec-02 07:00N 47°26' W 123°07'0 0.0
2017-Dec-02 06:30N 47°26' W 123°07'0 0.0
2017-Dec-02 06:00N 47°26' W 123°07'0 0.0
2017-Dec-02 05:30N 47°26' W 123°07'0 0.0
2017-Dec-02 05:00N 47°26' W 123°07'0 0.0
2017-Dec-02 04:30N 47°26' W 123°07'0 0.0
2017-Dec-02 04:00N 47°26' W 123°07'0 0.0
2017-Dec-02 03:30N 47°26' W 123°07'0 0.0
2017-Dec-02 03:00N 47°26' W 123°07'0 0.0
2017-Dec-02 02:30N 47°26' W 123°07'0 0.0
2017-Dec-02 02:00N 47°26' W 123°07'0 0.0
2017-Dec-02 01:30N 47°26' W 123°07'1 2.8
2017-Dec-02 01:00N 47°27' W 123°06'3 5.7
2017-Dec-02 00:29N 47°29' W 123°03'3 5.5
2017-Dec-02 00:00N 47°32' W 123°02'3 5.6
2017-Dec-01 23:30N 47°34' W 122°60'3 5.3
2017-Dec-01 23:00N 47°36' W 122°57'3 5.0
2017-Dec-01 22:30N 47°38' W 122°55'5 8.9
2017-Dec-01 22:00N 47°40' W 122°48'9 9.8
2017-Dec-01 21:06N 47°48' W 122°43'110.4
2017-Dec-01 21:00N 47°49' W 122°42'5 9.8
2017-Dec-01 20:30N 47°52' W 122°37'0 0.7
2017-Dec-01 20:00N 47°52' W 122°37'4 6.6
2017-Dec-01 19:22N 47°56' W 122°38'711.4
2017-Dec-01 18:45N 48°03' W 122°40'411.7
2017-Dec-01 18:25N 48°07' W 122°41'612.2
2017-Dec-01 17:58N 48°10' W 122°48'511.1
2017-Dec-01 17:29N 48°11' W 122°56'511.1
2017-Dec-01 17:00N 48°12' W 123°04'611.4
2017-Dec-01 16:30N 48°12' W 123°13'611.2
2017-Dec-01 16:00N 48°11' W 123°21'510.9
2017-Dec-01 15:30N 48°11' W 123°29'4 7.6
2017-Dec-01 15:00N 48°11' W 123°35'0 0.0
2017-Dec-01 14:29N 48°11' W 123°35'0 0.0
2017-Dec-01 14:00N 48°11' W 123°35'0 0.0
2017-Dec-01 13:30N 48°11' W 123°35'0 0.0
2017-Dec-01 13:00N 48°11' W 123°35'0 0.0
2017-Dec-01 12:30N 48°11' W 123°35'0 0.0
2017-Dec-01 12:00N 48°11' W 123°35'2 3.2
2017-Dec-01 11:30N 48°11' W 123°33'4 8.5
2017-Dec-01 10:59N 48°11' W 123°26'4 8.5
2017-Dec-01 10:30N 48°11' W 123°20'4 8.3
2017-Dec-01 10:00N 48°14' W 123°14'4 8.5
2017-Dec-01 09:29N 48°16' W 123°09'5 8.6
2017-Dec-01 08:54N 48°19' W 123°02'3 8.9
2017-Dec-01 08:30N 48°20' W 122°58'4 8.2
2017-Dec-01 08:00N 48°23' W 122°53'4 8.1
2017-Dec-01 07:30N 48°25' W 122°48'4 7.1
2017-Dec-01 07:00N 48°28' W 122°45'4 7.2
2017-Dec-01 06:30N 48°31' W 122°42'3 6.9
2017-Dec-01 06:00N 48°31' W 122°37'0 0.4
2017-Dec-01 05:19N 48°31' W 122°37'0 0.0
2017-Dec-01 04:49N 48°31' W 122°37'0 0.0
2017-Dec-01 04:25N 48°31' W 122°37'0 0.0
2017-Dec-01 03:58N 48°31' W 122°37'0 0.0
2017-Dec-01 03:25N 48°31' W 122°37'0 0.0
2017-Dec-01 02:55N 48°31' W 122°37'  

Dump ship's entire track history